AFR890 EBAW-EGLC
Flight info
| Callsign | AFR890 |
|---|---|
| Flight time | 0h 36m |
| Altitude | 18000 |
| Route | NIK L179 KEGIT/N0369F200 L608 SASKI/N0358F180 L608 SUMUM |
| Aircraft | B736/M-SDE2E3FGHIRWXY/LB1 |
Departure
| Time | 2026-04-15 09:59 |
|---|---|
| Airport | Antwerp International Airport (Deurne) (EBAW) |
Arrival
| Time | 2026-04-15 10:35 |
|---|---|
| Airport | London City Airport (EGLC) |
| Time | Latitude | Longitude | Altitude | Speed | Heading |
|---|---|---|---|---|---|
| 2026-04-15 09:45 | 51.18895 | 4.45223 | 37 ft | 0 kts | 152° |
| 2026-04-15 09:52 | 51.18896 | 4.45222 | 37 ft | 0 kts | 152° |
| 2026-04-15 09:53 | 51.18894 | 4.45224 | 36 ft | 2 kts | 153° |
| 2026-04-15 09:53 | 51.18873 | 4.45269 | 37 ft | 10 kts | 89° |
| 2026-04-15 09:54 | 51.18917 | 4.45389 | 37 ft | 17 kts | 17° |
| 2026-04-15 09:54 | 51.19006 | 4.45504 | 37 ft | 12 kts | 45° |
| 2026-04-15 09:54 | 51.19087 | 4.45447 | 38 ft | 10 kts | 316° |
| 2026-04-15 09:54 | 51.19089 | 4.45444 | 38 ft | 0 kts | 321° |
| 2026-04-15 09:55 | 51.19091 | 4.45442 | 38 ft | 2 kts | 321° |
| 2026-04-15 09:56 | 51.19122 | 4.45402 | 38 ft | 9 kts | 321° |
| 2026-04-15 09:56 | 51.19187 | 4.45319 | 40 ft | 14 kts | 327° |
| 2026-04-15 09:56 | 51.19219 | 4.45340 | 39 ft | 0 kts | 109° |
| 2026-04-15 09:58 | 51.19217 | 4.45348 | 40 ft | 3 kts | 109° |
| 2026-04-15 09:58 | 51.19145 | 4.45672 | 39 ft | 78 kts | 111° |
| 2026-04-15 09:58 | 51.18852 | 4.46950 | 110 ft | 159 kts | 111° |
| 2026-04-15 09:59 | 51.18429 | 4.48855 | 713 ft | 197 kts | 108° |
| 2026-04-15 09:59 | 51.18048 | 4.50863 | 2244 ft | 177 kts | 106° |
| 2026-04-15 09:59 | 51.17607 | 4.52917 | 2911 ft | 220 kts | 117° |
| 2026-04-15 09:59 | 51.16487 | 4.54799 | 2948 ft | 258 kts | 153° |
| 2026-04-15 10:00 | 51.14718 | 4.55322 | 2999 ft | 263 kts | 189° |
| 2026-04-15 10:00 | 51.13095 | 4.54083 | 2990 ft | 262 kts | 226° |
| 2026-04-15 10:00 | 51.12261 | 4.51571 | 2981 ft | 259 kts | 262° |
| 2026-04-15 10:00 | 51.12431 | 4.48766 | 3008 ft | 256 kts | 286° |
| 2026-04-15 10:01 | 51.12960 | 4.46088 | 2992 ft | 256 kts | 285° |
| 2026-04-15 10:01 | 51.13385 | 4.43332 | 2990 ft | 256 kts | 283° |
| 2026-04-15 10:01 | 51.13769 | 4.40556 | 2985 ft | 257 kts | 282° |
| 2026-04-15 10:01 | 51.14135 | 4.37769 | 2983 ft | 257 kts | 281° |
| 2026-04-15 10:02 | 51.14489 | 4.34983 | 2987 ft | 257 kts | 281° |
| 2026-04-15 10:02 | 51.14836 | 4.32184 | 2986 ft | 258 kts | 281° |
| 2026-04-15 10:02 | 51.15180 | 4.29376 | 2993 ft | 259 kts | 281° |
| 2026-04-15 10:02 | 51.15523 | 4.26549 | 2982 ft | 260 kts | 281° |
| 2026-04-15 10:03 | 51.15865 | 4.23716 | 2983 ft | 260 kts | 281° |
| 2026-04-15 10:03 | 51.16201 | 4.20917 | 2982 ft | 261 kts | 281° |
| 2026-04-15 10:03 | 51.16554 | 4.18047 | 2984 ft | 260 kts | 283° |
| 2026-04-15 10:03 | 51.17086 | 4.15332 | 2989 ft | 260 kts | 289° |
| 2026-04-15 10:04 | 51.17714 | 4.12627 | 2986 ft | 261 kts | 290° |
| 2026-04-15 10:04 | 51.18348 | 4.09926 | 2996 ft | 260 kts | 290° |
| 2026-04-15 10:04 | 51.18976 | 4.07226 | 2995 ft | 259 kts | 290° |
| 2026-04-15 10:04 | 51.19591 | 4.04513 | 3179 ft | 263 kts | 289° |
| 2026-04-15 10:05 | 51.20213 | 4.01760 | 4143 ft | 263 kts | 289° |
| 2026-04-15 10:05 | 51.20832 | 3.99008 | 5239 ft | 264 kts | 289° |
| 2026-04-15 10:05 | 51.21453 | 3.96232 | 6215 ft | 268 kts | 289° |
| 2026-04-15 10:05 | 51.22082 | 3.93403 | 7175 ft | 272 kts | 289° |
| 2026-04-15 10:06 | 51.22720 | 3.90533 | 8105 ft | 274 kts | 290° |
| 2026-04-15 10:06 | 51.23397 | 3.87699 | 8558 ft | 277 kts | 291° |
| 2026-04-15 10:06 | 51.23853 | 3.85764 | 8878 ft | 289 kts | 289° |
| 2026-04-15 10:06 | 51.24494 | 3.82739 | 10267 ft | 285 kts | 288° |
| 2026-04-15 10:07 | 51.25134 | 3.79724 | 11215 ft | 292 kts | 289° |
| 2026-04-15 10:07 | 51.26077 | 3.75389 | 11564 ft | 326 kts | 289° |
| 2026-04-15 10:07 | 51.26914 | 3.71578 | 12209 ft | 338 kts | 289° |
| 2026-04-15 10:07 | 51.29774 | 3.58567 | 14969 ft | 352 kts | 289° |
| 2026-04-15 10:08 | 51.31712 | 3.49708 | 16638 ft | 363 kts | 289° |
| 2026-04-15 10:08 | 51.32550 | 3.45865 | 17315 ft | 367 kts | 289° |
| 2026-04-15 10:08 | 51.33393 | 3.41989 | 17883 ft | 370 kts | 289° |
| 2026-04-15 10:08 | 51.34239 | 3.38093 | 17978 ft | 372 kts | 289° |
| 2026-04-15 10:09 | 51.35094 | 3.34177 | 17992 ft | 372 kts | 290° |
| 2026-04-15 10:09 | 51.36004 | 3.30294 | 18003 ft | 372 kts | 291° |
| 2026-04-15 10:09 | 51.36937 | 3.26439 | 18002 ft | 371 kts | 291° |
| 2026-04-15 10:09 | 51.37860 | 3.22631 | 18009 ft | 371 kts | 291° |
| 2026-04-15 10:10 | 51.38787 | 3.18773 | 18000 ft | 371 kts | 291° |
| 2026-04-15 10:10 | 51.39710 | 3.14894 | 18000 ft | 371 kts | 290° |
| 2026-04-15 10:10 | 51.40626 | 3.11028 | 18007 ft | 371 kts | 290° |
| 2026-04-15 10:10 | 51.41538 | 3.07156 | 17999 ft | 371 kts | 290° |
| 2026-04-15 10:11 | 51.42447 | 3.03287 | 18004 ft | 371 kts | 290° |
| 2026-04-15 10:11 | 51.43342 | 2.99466 | 17991 ft | 360 kts | 290° |
| 2026-04-15 10:11 | 51.44212 | 2.95750 | 17992 ft | 353 kts | 290° |
| 2026-04-15 10:11 | 51.45072 | 2.92070 | 17998 ft | 352 kts | 290° |
| 2026-04-15 10:12 | 51.45930 | 2.88390 | 18004 ft | 353 kts | 290° |
| 2026-04-15 10:12 | 51.46791 | 2.84694 | 18003 ft | 354 kts | 290° |
| 2026-04-15 10:12 | 51.47654 | 2.80984 | 18008 ft | 355 kts | 290° |
| 2026-04-15 10:12 | 51.48516 | 2.77268 | 18011 ft | 355 kts | 290° |
| 2026-04-15 10:13 | 51.49379 | 2.73547 | 18004 ft | 355 kts | 290° |
| 2026-04-15 10:13 | 51.50239 | 2.69828 | 17999 ft | 355 kts | 290° |
| 2026-04-15 10:13 | 51.51096 | 2.66118 | 18000 ft | 355 kts | 290° |
| 2026-04-15 10:13 | 51.51951 | 2.62405 | 18001 ft | 354 kts | 290° |
| 2026-04-15 10:14 | 51.52794 | 2.58748 | 17994 ft | 354 kts | 290° |
| 2026-04-15 10:14 | 51.53645 | 2.55044 | 17999 ft | 353 kts | 290° |
| 2026-04-15 10:14 | 51.54495 | 2.51341 | 18001 ft | 353 kts | 290° |
| 2026-04-15 10:14 | 51.55342 | 2.47633 | 18006 ft | 353 kts | 290° |
| 2026-04-15 10:15 | 51.56183 | 2.43932 | 18002 ft | 352 kts | 290° |
| 2026-04-15 10:15 | 51.57022 | 2.40228 | 18002 ft | 352 kts | 290° |
| 2026-04-15 10:15 | 51.57861 | 2.36524 | 18003 ft | 351 kts | 290° |
| 2026-04-15 10:15 | 51.58687 | 2.32884 | 17839 ft | 345 kts | 290° |
| 2026-04-15 10:16 | 51.59511 | 2.29267 | 17567 ft | 342 kts | 290° |
| 2026-04-15 10:16 | 51.60329 | 2.25675 | 17168 ft | 340 kts | 290° |
| 2026-04-15 10:16 | 51.61138 | 2.22118 | 16765 ft | 337 kts | 290° |
| 2026-04-15 10:16 | 51.61941 | 2.18584 | 16368 ft | 335 kts | 290° |
| 2026-04-15 10:17 | 51.62738 | 2.15064 | 15939 ft | 333 kts | 290° |
| 2026-04-15 10:17 | 51.63518 | 2.11616 | 15531 ft | 332 kts | 290° |
| 2026-04-15 10:17 | 51.64303 | 2.08134 | 15113 ft | 330 kts | 290° |
| 2026-04-15 10:17 | 51.65082 | 2.04670 | 14704 ft | 328 kts | 290° |
| 2026-04-15 10:18 | 51.65855 | 2.01230 | 14296 ft | 326 kts | 290° |
| 2026-04-15 10:18 | 51.66624 | 1.97799 | 13885 ft | 325 kts | 290° |
| 2026-04-15 10:18 | 51.67388 | 1.94390 | 13474 ft | 323 kts | 289° |
| 2026-04-15 10:18 | 51.68148 | 1.90990 | 13063 ft | 321 kts | 289° |
| 2026-04-15 10:19 | 51.68901 | 1.87614 | 12658 ft | 320 kts | 289° |
| 2026-04-15 10:19 | 51.69650 | 1.84252 | 12248 ft | 318 kts | 289° |
| 2026-04-15 10:19 | 51.70396 | 1.80900 | 11850 ft | 316 kts | 289° |
| 2026-04-15 10:19 | 51.71135 | 1.77574 | 11444 ft | 315 kts | 289° |
| 2026-04-15 10:20 | 51.71869 | 1.74264 | 11042 ft | 313 kts | 289° |
| 2026-04-15 10:20 | 51.72602 | 1.70960 | 10640 ft | 311 kts | 289° |
| 2026-04-15 10:20 | 51.73327 | 1.67684 | 10304 ft | 307 kts | 289° |
| 2026-04-15 10:20 | 51.74031 | 1.64494 | 10179 ft | 297 kts | 289° |
| 2026-04-15 10:21 | 51.74649 | 1.61375 | 10026 ft | 287 kts | 279° |
| 2026-04-15 10:21 | 51.74608 | 1.58237 | 9991 ft | 274 kts | 262° |
| 2026-04-15 10:21 | 51.74317 | 1.55237 | 9733 ft | 273 kts | 263° |
| 2026-04-15 10:21 | 51.74134 | 1.52179 | 9438 ft | 271 kts | 265° |
| 2026-04-15 10:22 | 51.73966 | 1.49176 | 9255 ft | 265 kts | 264° |
| 2026-04-15 10:22 | 51.73792 | 1.46259 | 9128 ft | 257 kts | 264° |
| 2026-04-15 10:22 | 51.73617 | 1.43443 | 9016 ft | 248 kts | 264° |
| 2026-04-15 10:22 | 51.73149 | 1.39805 | 8801 ft | 239 kts | 253° |
| 2026-04-15 10:23 | 51.71523 | 1.31586 | 8302 ft | 221 kts | 252° |
| 2026-04-15 10:23 | 51.69037 | 1.19046 | 7570 ft | 203 kts | 252° |
| 2026-04-15 10:23 | 51.68605 | 1.16827 | 7237 ft | 219 kts | 253° |
| 2026-04-15 10:23 | 51.68149 | 1.14452 | 6864 ft | 226 kts | 253° |
| 2026-04-15 10:24 | 51.67681 | 1.12013 | 6509 ft | 229 kts | 253° |
| 2026-04-15 10:24 | 51.67210 | 1.09564 | 6248 ft | 228 kts | 253° |
| 2026-04-15 10:24 | 51.66740 | 1.07131 | 5994 ft | 227 kts | 253° |
| 2026-04-15 10:24 | 51.66270 | 1.04702 | 5736 ft | 226 kts | 253° |
| 2026-04-15 10:25 | 51.65802 | 1.02285 | 5491 ft | 225 kts | 253° |
| 2026-04-15 10:25 | 51.65335 | 0.99879 | 5240 ft | 225 kts | 253° |
| 2026-04-15 10:25 | 51.64869 | 0.97488 | 4990 ft | 224 kts | 252° |
| 2026-04-15 10:25 | 51.64403 | 0.95093 | 4739 ft | 223 kts | 252° |
| 2026-04-15 10:26 | 51.63944 | 0.92741 | 4501 ft | 223 kts | 252° |
| 2026-04-15 10:26 | 51.63479 | 0.90358 | 4245 ft | 223 kts | 252° |
| 2026-04-15 10:26 | 51.63014 | 0.87979 | 3988 ft | 223 kts | 252° |
| 2026-04-15 10:26 | 51.62548 | 0.85603 | 3764 ft | 223 kts | 252° |
| 2026-04-15 10:27 | 51.62081 | 0.83220 | 3498 ft | 223 kts | 252° |
| 2026-04-15 10:27 | 51.61615 | 0.80845 | 3257 ft | 222 kts | 252° |
| 2026-04-15 10:27 | 51.61149 | 0.78474 | 2997 ft | 222 kts | 253° |
| 2026-04-15 10:27 | 51.60683 | 0.76104 | 2759 ft | 221 kts | 252° |
| 2026-04-15 10:28 | 51.60219 | 0.73745 | 2491 ft | 221 kts | 252° |
| 2026-04-15 10:28 | 51.59754 | 0.71392 | 2242 ft | 219 kts | 252° |
| 2026-04-15 10:28 | 51.59292 | 0.69061 | 2031 ft | 217 kts | 252° |
| 2026-04-15 10:28 | 51.58838 | 0.66765 | 1967 ft | 215 kts | 252° |
| 2026-04-15 10:29 | 51.58385 | 0.64483 | 1949 ft | 213 kts | 252° |
| 2026-04-15 10:29 | 51.57936 | 0.62219 | 1949 ft | 212 kts | 252° |
| 2026-04-15 10:29 | 51.57437 | 0.59705 | 1941 ft | 214 kts | 252° |
| 2026-04-15 10:29 | 51.56984 | 0.57421 | 1952 ft | 215 kts | 252° |
| 2026-04-15 10:30 | 51.56527 | 0.55125 | 1948 ft | 215 kts | 252° |
| 2026-04-15 10:30 | 51.56070 | 0.52830 | 1946 ft | 215 kts | 252° |
| 2026-04-15 10:30 | 51.55615 | 0.50547 | 1953 ft | 214 kts | 252° |
| 2026-04-15 10:30 | 51.55160 | 0.48269 | 1953 ft | 214 kts | 252° |
| 2026-04-15 10:31 | 51.53476 | 0.39846 | 1968 ft | 217 kts | 252° |
| 2026-04-15 10:31 | 51.52409 | 0.34546 | 1945 ft | 219 kts | 252° |
| 2026-04-15 10:31 | 51.51944 | 0.32243 | 1940 ft | 215 kts | 252° |
| 2026-04-15 10:31 | 51.51489 | 0.29974 | 1934 ft | 210 kts | 252° |
| 2026-04-15 10:32 | 51.51052 | 0.27806 | 1937 ft | 199 kts | 252° |
| 2026-04-15 10:32 | 51.50630 | 0.25717 | 1939 ft | 196 kts | 252° |
| 2026-04-15 10:32 | 51.50214 | 0.23655 | 1947 ft | 198 kts | 252° |
| 2026-04-15 10:32 | 51.49993 | 0.21466 | 1933 ft | 201 kts | 276° |
| 2026-04-15 10:33 | 51.50150 | 0.19247 | 1943 ft | 199 kts | 269° |
| 2026-04-15 10:33 | 51.50141 | 0.17071 | 1948 ft | 190 kts | 274° |
| 2026-04-15 10:33 | 51.50229 | 0.15019 | 1825 ft | 183 kts | 273° |
| 2026-04-15 10:33 | 51.50291 | 0.13004 | 1451 ft | 174 kts | 272° |
| 2026-04-15 10:34 | 51.50349 | 0.11101 | 1039 ft | 167 kts | 272° |
| 2026-04-15 10:34 | 51.50405 | 0.09300 | 671 ft | 155 kts | 272° |
| 2026-04-15 10:34 | 51.50448 | 0.07664 | 285 ft | 138 kts | 274° |
| 2026-04-15 10:34 | 51.50502 | 0.06207 | 28 ft | 123 kts | 272° |
| 2026-04-15 10:35 | 51.50526 | 0.05403 | 24 ft | 27 kts | 270° |
| 2026-04-15 10:35 | 51.50458 | 0.05253 | 27 ft | 17 kts | 239° |
| 2026-04-15 10:35 | 51.50456 | 0.05071 | 28 ft | 16 kts | 276° |
| 2026-04-15 10:35 | 51.50465 | 0.04954 | 27 ft | 16 kts | 278° |
| 2026-04-15 10:36 | 51.50471 | 0.04734 | 29 ft | 6 kts | 264° |
| 2026-04-15 10:36 | 51.50460 | 0.04722 | 28 ft | 1 kts | 206° |
| 2026-04-15 10:36 | 51.50451 | 0.04716 | 28 ft | 1 kts | 201° |
| 2026-04-15 10:36 | 51.50441 | 0.04713 | 28 ft | 2 kts | 179° |
| 2026-04-15 10:37 | 51.50437 | 0.04713 | 28 ft | 0 kts | 182° |
| 2026-04-15 10:42 | 51.50439 | 0.04713 | 28 ft | 0 kts | 182° |
| 2026-04-15 10:42 | 51.50435 | 0.04713 | 28 ft | 0 kts | 182° |
| 2026-04-15 10:43 | 51.19155 | 4.45360 | 36 ft | 13 kts | 322° |